createdAt,value
2023-04-27T00:01:54.912Z,20.88
2023-04-27T00:04:22.374Z,20.85
2023-04-27T00:06:49.466Z,20.55
2023-04-27T00:09:16.609Z,21.35
2023-04-27T00:11:43.534Z,20.42
2023-04-27T00:14:10.665Z,21.27
2023-04-27T00:16:37.436Z,20.05
2023-04-27T00:19:04.502Z,19.55
2023-04-27T00:21:32.045Z,20.45
2023-04-27T00:23:59.018Z,19.88
2023-04-27T00:26:26.836Z,19.60
2023-04-27T00:28:53.920Z,21.08
2023-04-27T00:31:20.883Z,19.23
2023-04-27T00:33:48.012Z,20.38
2023-04-27T00:36:14.685Z,18.75
2023-04-27T00:38:41.744Z,18.10
2023-04-27T00:41:08.480Z,18.58
2023-04-27T00:43:42.857Z,19.17
2023-04-27T00:46:09.939Z,19.65
2023-04-27T00:48:37.517Z,19.00
2023-04-27T00:51:04.388Z,18.63
2023-04-27T00:53:31.462Z,18.38
2023-04-27T00:55:58.700Z,18.38
2023-04-27T00:58:26.081Z,17.80
2023-04-27T01:00:52.891Z,17.70
2023-04-27T01:03:20.241Z,18.23
2023-04-27T01:05:47.068Z,17.30
2023-04-27T01:08:14.154Z,16.92
2023-04-27T01:10:41.371Z,19.15
2023-04-27T01:13:08.412Z,17.42
2023-04-27T01:15:35.184Z,18.15
2023-04-27T01:18:02.667Z,18.58
2023-04-27T01:20:30.427Z,16.63
2023-04-27T01:22:57.654Z,18.48
2023-04-27T01:25:24.773Z,17.27
2023-04-27T01:27:51.895Z,18.40
2023-04-27T01:30:18.729Z,17.40
2023-04-27T01:32:45.887Z,18.15
2023-04-27T01:35:12.634Z,17.55
2023-04-27T01:37:39.795Z,16.75
2023-04-27T01:40:07.388Z,17.40
2023-04-27T01:42:34.461Z,17.33
2023-04-27T01:45:01.294Z,16.95
2023-04-27T01:47:28.351Z,17.58
2023-04-27T01:49:55.088Z,16.77
2023-04-27T01:52:22.171Z,16.25
2023-04-27T01:54:48.960Z,17.58
2023-04-27T01:57:16.279Z,15.90
2023-04-27T01:59:43.021Z,16.77
2023-04-27T02:02:10.089Z,15.93
2023-04-27T02:04:36.939Z,15.55
2023-04-27T02:07:04.130Z,15.88
2023-04-27T02:09:30.840Z,14.40
2023-04-27T02:11:57.829Z,14.85
2023-04-27T02:14:24.596Z,15.85
2023-04-27T02:16:51.656Z,14.90
2023-04-27T02:19:18.540Z,16.13
2023-04-27T02:21:45.557Z,15.13
2023-04-27T02:24:12.258Z,14.48
2023-04-27T02:26:39.340Z,15.52
2023-04-27T02:29:06.304Z,14.88
2023-04-27T02:31:33.831Z,14.43
2023-04-27T02:34:00.713Z,14.02
2023-04-27T02:36:27.946Z,15.10
2023-04-27T02:38:55.422Z,14.02
2023-04-27T02:41:22.406Z,13.43
2023-04-27T02:43:50.487Z,14.05
2023-04-27T02:46:17.506Z,14.63
2023-04-27T02:48:44.297Z,15.50
2023-04-27T02:51:11.451Z,14.05
2023-04-27T02:53:38.149Z,14.60
2023-04-27T02:56:05.295Z,14.65
2023-04-27T02:58:32.199Z,13.13
2023-04-27T03:00:59.258Z,13.00
2023-04-27T03:03:26.237Z,13.93
2023-04-27T03:05:53.423Z,13.90
2023-04-27T03:08:20.123Z,13.77
2023-04-27T03:10:47.198Z,13.35
2023-04-27T03:13:16.680Z,13.57
2023-04-27T03:15:43.650Z,13.25
2023-04-27T03:18:11.368Z,13.07
2023-04-27T03:20:38.430Z,13.35
2023-04-27T03:23:05.204Z,14.20
2023-04-27T03:25:32.257Z,13.88
2023-04-27T03:27:58.998Z,13.75
2023-04-27T03:30:26.017Z,13.85
2023-04-27T03:32:52.763Z,14.13
2023-04-27T03:35:19.849Z,13.25
2023-04-27T03:37:46.907Z,14.07
2023-04-27T03:40:14.524Z,13.85
2023-04-27T03:42:41.322Z,13.02
2023-04-27T03:45:08.933Z,12.75
2023-04-27T03:47:35.674Z,13.70
2023-04-27T03:50:02.792Z,13.25
2023-04-27T03:52:29.504Z,13.63
2023-04-27T03:54:56.547Z,12.52
2023-04-27T03:57:23.334Z,11.85
2023-04-27T03:59:50.666Z,13.32
2023-04-27T04:02:17.448Z,13.00
2023-04-27T04:04:44.754Z,13.10
2023-04-27T04:07:11.922Z,12.40
2023-04-27T04:09:38.946Z,12.82
2023-04-27T04:12:06.410Z,12.27
2023-04-27T04:14:33.463Z,12.98
2023-04-27T04:17:00.222Z,11.48
2023-04-27T04:19:27.278Z,12.45
2023-04-27T04:21:54.714Z,12.18
2023-04-27T04:24:21.786Z,12.48
2023-04-27T04:26:48.640Z,11.40
2023-04-27T04:29:15.952Z,12.27
2023-04-27T04:31:43.025Z,12.15
2023-04-27T04:34:10.144Z,11.60
2023-04-27T04:36:36.984Z,11.73
2023-04-27T04:39:05.347Z,12.02
2023-04-27T04:41:32.485Z,11.30
2023-04-27T04:43:59.626Z,12.07
2023-04-27T04:46:26.425Z,11.27
2023-04-27T04:48:54.726Z,12.60
2023-04-27T04:51:21.693Z,12.50
2023-04-27T04:53:48.824Z,12.52
2023-04-27T04:56:16.887Z,11.73
2023-04-27T04:58:43.980Z,10.73
2023-04-27T05:01:10.963Z,11.13
2023-04-27T05:03:38.284Z,11.32
2023-04-27T05:06:05.535Z,10.32
2023-04-27T05:08:32.624Z,11.85
2023-04-27T05:10:59.415Z,10.32
2023-04-27T05:13:26.925Z,10.80
2023-04-27T05:15:53.777Z,10.73
2023-04-27T05:18:20.825Z,11.00
2023-04-27T05:20:47.543Z,10.82
2023-04-27T05:23:14.584Z,10.73
2023-04-27T05:25:43.912Z,11.18
2023-04-27T05:28:11.043Z,11.95
2023-04-27T05:30:38.079Z,11.00
2023-04-27T05:33:05.464Z,11.57
2023-04-27T05:35:32.574Z,12.77
2023-04-27T05:37:59.624Z,12.05
2023-04-27T05:40:26.619Z,11.27
2023-04-27T05:42:53.788Z,11.20
2023-04-27T05:45:20.778Z,11.68
2023-04-27T05:47:48.080Z,12.30
2023-04-27T05:50:14.862Z,10.95
2023-04-27T05:52:42.059Z,11.88
2023-04-27T05:55:09.072Z,11.20
2023-04-27T05:57:36.196Z,10.57
2023-04-27T06:00:08.584Z,11.70
2023-04-27T06:02:35.816Z,13.35
2023-04-27T06:05:03.780Z,12.07
2023-04-27T06:07:31.396Z,12.23
2023-04-27T06:09:58.244Z,12.00
2023-04-27T06:12:25.274Z,11.57
2023-04-27T06:14:52.183Z,11.45
2023-04-27T06:17:19.209Z,12.40
2023-04-27T06:19:46.099Z,13.07
2023-04-27T06:22:13.210Z,11.55
2023-04-27T06:24:39.935Z,12.18
2023-04-27T06:27:06.922Z,13.55
2023-04-27T06:29:33.761Z,10.95
2023-04-27T06:32:01.807Z,12.40
2023-04-27T06:34:28.837Z,11.52
2023-04-27T06:36:56.082Z,11.88
2023-04-27T06:39:22.900Z,11.88
2023-04-27T06:41:49.937Z,12.82
2023-04-27T06:44:16.614Z,12.40
2023-04-27T06:46:43.679Z,12.07
2023-04-27T06:49:10.783Z,11.63
2023-04-27T06:51:37.883Z,11.00
2023-04-27T06:54:04.883Z,10.73
2023-04-27T06:56:32.043Z,11.30
2023-04-27T06:58:58.835Z,10.18
2023-04-27T07:01:26.193Z,10.57
2023-04-27T07:03:53.371Z,9.65
2023-04-27T07:06:20.715Z,9.00
2023-04-27T07:08:47.480Z,9.05
2023-04-27T07:11:16.287Z,7.57
2023-04-27T07:13:43.366Z,8.07
2023-04-27T07:16:10.473Z,8.50
2023-04-27T07:18:37.295Z,7.80
2023-04-27T07:21:05.686Z,7.63
2023-04-27T07:23:32.465Z,6.80
2023-04-27T07:25:59.478Z,7.07
2023-04-27T07:28:28.307Z,7.35
2023-04-27T07:30:55.956Z,7.05
2023-04-27T07:33:22.694Z,6.10
2023-04-27T07:35:51.152Z,6.55
2023-04-27T07:38:18.540Z,5.90
2023-04-27T07:40:46.686Z,5.90
2023-04-27T07:43:13.493Z,6.95
2023-04-27T07:45:41.489Z,6.07
2023-04-27T07:48:08.612Z,5.82
2023-04-27T07:50:35.905Z,5.47
2023-04-27T07:53:02.707Z,5.60
2023-04-27T07:55:29.789Z,6.32
2023-04-27T07:57:56.869Z,5.32
2023-04-27T08:00:25.435Z,5.45
2023-04-27T08:02:55.447Z,5.57
2023-04-27T08:05:23.180Z,6.13
2023-04-27T08:07:53.402Z,5.22
2023-04-27T08:10:21.827Z,5.43
2023-04-27T08:12:48.750Z,6.03
2023-04-27T08:15:15.890Z,5.68
2023-04-27T08:17:43.681Z,5.70
2023-04-27T08:20:14.530Z,5.13
2023-04-27T08:22:41.427Z,5.57
2023-04-27T08:25:09.175Z,5.00
2023-04-27T08:27:40.183Z,5.00
2023-04-27T08:30:07.899Z,5.47
2023-04-27T08:32:34.689Z,4.65
2023-04-27T08:35:01.815Z,5.03
2023-04-27T08:37:28.567Z,4.45
2023-04-27T08:39:55.600Z,4.55
2023-04-27T08:42:22.350Z,4.40
2023-04-27T08:44:49.402Z,4.40
2023-04-27T08:47:16.097Z,4.57
2023-04-27T08:49:43.112Z,3.85
2023-04-27T08:52:16.452Z,4.40
2023-04-27T08:54:43.689Z,3.63
2023-04-27T08:57:13.673Z,3.53
2023-04-27T08:59:40.958Z,4.13
2023-04-27T09:02:07.973Z,4.55
2023-04-27T09:04:39.393Z,3.85
2023-04-27T09:07:16.613Z,3.70
2023-04-27T09:09:44.146Z,3.05
2023-04-27T09:12:21.577Z,2.97
2023-04-27T09:14:57.935Z,3.35
2023-04-27T09:17:28.306Z,3.90
2023-04-27T09:20:09.133Z,3.80
2023-04-27T09:22:58.538Z,3.78
2023-04-27T09:25:31.391Z,3.28
2023-04-27T09:27:59.029Z,3.15
2023-04-27T09:30:26.914Z,3.83
2023-04-27T09:32:54.313Z,3.08
2023-04-27T09:35:32.157Z,3.45
2023-04-27T09:37:59.377Z,3.80
2023-04-27T09:40:29.606Z,3.50
2023-04-27T09:42:57.411Z,3.78
2023-04-27T09:45:25.105Z,3.72
2023-04-27T09:47:52.101Z,3.35
2023-04-27T09:50:19.302Z,3.58
2023-04-27T09:52:46.492Z,3.42
2023-04-27T09:55:19.877Z,3.72
2023-04-27T09:58:06.371Z,3.58
2023-04-27T10:00:42.839Z,3.63
2023-04-27T10:03:31.173Z,3.13
2023-04-27T10:06:10.629Z,3.35
2023-04-27T10:08:37.379Z,3.60
2023-04-27T10:11:17.564Z,3.45
2023-04-27T10:13:54.811Z,3.60
2023-04-27T10:16:22.602Z,3.13
2023-04-27T10:18:55.689Z,3.30
2023-04-27T10:21:23.688Z,3.08
2023-04-27T10:23:51.345Z,3.20
2023-04-27T10:26:25.584Z,2.83
2023-04-27T10:29:07.184Z,2.75
2023-04-27T10:31:34.485Z,2.65
2023-04-27T10:34:08.586Z,3.88
2023-04-27T10:36:39.404Z,3.37
2023-04-27T10:39:18.968Z,3.17
2023-04-27T10:41:51.078Z,3.20
2023-04-27T10:44:29.305Z,3.00
2023-04-27T10:47:00.648Z,3.05
2023-04-27T10:49:30.700Z,3.00
2023-04-27T10:51:58.921Z,3.33
2023-04-27T10:54:28.377Z,3.28
2023-04-27T10:57:03.983Z,2.80
2023-04-27T11:01:57.789Z,3.42
2023-04-27T11:04:24.774Z,2.50
2023-04-27T11:06:53.719Z,2.75
2023-04-27T11:09:27.511Z,2.30
2023-04-27T11:11:54.518Z,2.53
2023-04-27T11:14:21.568Z,1.98
2023-04-27T11:16:48.796Z,2.55
2023-04-27T11:19:15.994Z,2.05
2023-04-27T11:21:43.438Z,2.50
2023-04-27T11:24:12.098Z,2.70
2023-04-27T11:26:40.431Z,2.33
2023-04-27T11:29:13.735Z,2.45
2023-04-27T11:31:47.396Z,2.15
2023-04-27T11:34:19.397Z,2.10
2023-04-27T11:37:17.788Z,2.00
2023-04-27T11:39:45.912Z,2.05
2023-04-27T11:42:26.303Z,2.00
2023-04-27T11:45:00.178Z,2.38
2023-04-27T11:47:31.030Z,2.05
2023-04-27T11:49:58.868Z,2.20
2023-04-27T11:52:29.679Z,2.25
2023-04-27T11:54:57.443Z,1.75
2023-04-27T11:57:26.236Z,1.80
2023-04-27T11:59:53.802Z,1.90
2023-04-27T12:02:23.966Z,1.90
2023-04-27T12:04:51.864Z,1.75
2023-04-27T12:07:19.099Z,2.05
2023-04-27T12:09:46.251Z,2.15
2023-04-27T12:12:22.418Z,1.92
2023-04-27T12:14:50.292Z,2.47
2023-04-27T12:17:17.287Z,1.85
2023-04-27T12:19:44.395Z,1.92
2023-04-27T12:22:11.203Z,1.95
2023-04-27T12:24:38.374Z,2.33
2023-04-27T12:27:05.209Z,2.08
2023-04-27T12:29:32.498Z,2.40
2023-04-27T12:31:59.751Z,2.40
2023-04-27T12:34:28.307Z,1.90
2023-04-27T12:36:55.152Z,1.70
2023-04-27T12:39:25.126Z,1.50
2023-04-27T12:41:52.134Z,1.70
2023-04-27T12:44:19.780Z,2.45
2023-04-27T12:46:48.412Z,1.73
2023-04-27T12:49:15.851Z,2.35
2023-04-27T12:51:42.766Z,2.20
2023-04-27T12:54:10.200Z,2.58
2023-04-27T12:56:37.193Z,2.05
2023-04-27T12:59:04.784Z,2.45
2023-04-27T13:01:31.789Z,2.60
2023-04-27T13:04:00.160Z,2.42
2023-04-27T13:06:27.489Z,3.17
2023-04-27T13:08:54.619Z,2.55
2023-04-27T13:11:21.421Z,2.70
2023-04-27T13:13:48.961Z,2.92
2023-04-27T13:16:16.606Z,2.63
2023-04-27T13:18:49.464Z,2.33
2023-04-27T13:21:16.660Z,2.10
2023-04-27T13:23:43.743Z,2.20
2023-04-27T13:26:11.519Z,1.90
2023-04-27T13:28:38.715Z,2.00
2023-04-27T13:31:06.094Z,2.60
2023-04-27T13:33:41.582Z,2.10
2023-04-27T13:36:11.915Z,2.45
2023-04-27T13:38:39.354Z,1.98
2023-04-27T13:41:06.720Z,1.65
2023-04-27T13:43:34.158Z,2.38
2023-04-27T13:46:01.845Z,2.42
2023-04-27T13:48:29.169Z,3.50
2023-04-27T13:50:56.171Z,3.00
2023-04-27T13:53:26.952Z,3.65
2023-04-27T13:55:56.639Z,3.10
2023-04-27T13:58:25.846Z,2.70
2023-04-27T14:00:53.705Z,2.50
2023-04-27T14:03:21.640Z,3.10
2023-04-27T14:05:49.079Z,2.63
2023-04-27T14:08:16.206Z,2.83
2023-04-27T14:10:44.220Z,2.47
2023-04-27T14:13:11.971Z,3.10
2023-04-27T14:15:38.806Z,2.58
2023-04-27T14:18:07.670Z,2.80
2023-04-27T14:20:35.561Z,3.13
2023-04-27T14:23:04.099Z,2.90
2023-04-27T14:25:32.923Z,2.78
2023-04-27T14:28:05.313Z,3.22
2023-04-27T14:30:32.906Z,2.92
2023-04-27T14:33:00.204Z,2.78
2023-04-27T14:35:27.683Z,2.55
2023-04-27T14:37:56.816Z,2.58
2023-04-27T14:40:24.943Z,2.25
2023-04-27T14:42:52.068Z,2.70
2023-04-27T14:45:19.079Z,3.53
2023-04-27T14:47:46.524Z,3.15
2023-04-27T14:50:13.546Z,2.63
2023-04-27T14:52:40.710Z,2.38
2023-04-27T14:55:07.812Z,2.78
2023-04-27T14:57:36.748Z,2.30
2023-04-27T15:00:09.839Z,2.15
2023-04-27T15:02:37.816Z,2.47
2023-04-27T15:05:06.007Z,2.25
2023-04-27T15:07:33.363Z,2.10
2023-04-27T15:10:00.212Z,2.35
2023-04-27T15:12:27.353Z,2.40
2023-04-27T15:14:54.254Z,1.98
2023-04-27T15:17:21.505Z,1.83
2023-04-27T15:19:48.297Z,2.28
2023-04-27T15:22:15.383Z,2.17
2023-04-27T15:24:42.145Z,2.03
2023-04-27T15:27:09.864Z,1.92
2023-04-27T15:29:37.041Z,2.00
2023-04-27T15:32:04.307Z,1.55
2023-04-27T15:34:32.562Z,1.83
2023-04-27T15:36:59.679Z,2.50
2023-04-27T15:39:27.382Z,2.30
2023-04-27T15:41:54.534Z,2.20
2023-04-27T15:44:21.354Z,2.00
2023-04-27T15:46:48.546Z,1.98
2023-04-27T15:49:16.328Z,3.22
2023-04-27T15:51:43.604Z,3.42
2023-04-27T15:54:10.691Z,2.78
2023-04-27T15:56:37.787Z,2.88
2023-04-27T15:59:04.666Z,3.65
2023-04-27T16:01:31.844Z,3.25
2023-04-27T16:03:58.824Z,2.92
2023-04-27T16:06:33.405Z,3.42
2023-04-27T16:09:00.933Z,3.60
2023-04-27T16:11:28.041Z,3.92
2023-04-27T16:13:54.858Z,4.18
2023-04-27T16:16:22.077Z,3.80
2023-04-27T16:18:48.874Z,4.00
2023-04-27T16:21:16.002Z,3.90
2023-04-27T16:23:43.459Z,3.28
2023-04-27T16:26:11.127Z,3.63
2023-04-27T16:28:39.403Z,3.10
2023-04-27T16:31:06.534Z,3.58
2023-04-27T16:33:33.404Z,3.28
2023-04-27T16:36:00.828Z,4.20
2023-04-27T16:38:27.691Z,3.20
2023-04-27T16:40:56.162Z,3.65
2023-04-27T16:43:23.115Z,3.65
2023-04-27T16:45:50.346Z,5.72
2023-04-27T16:48:17.675Z,7.60
2023-04-27T16:50:46.586Z,8.13
2023-04-27T16:53:15.050Z,8.52
2023-04-27T16:55:42.305Z,7.88
2023-04-27T16:58:09.251Z,7.40
2023-04-27T17:00:36.499Z,5.85
2023-04-27T17:03:03.559Z,6.32
2023-04-27T17:05:30.788Z,6.05
2023-04-27T17:07:57.578Z,5.90
2023-04-27T17:10:24.926Z,5.55
2023-04-27T17:12:51.841Z,5.45
2023-04-27T17:15:19.010Z,5.78
2023-04-27T17:17:47.322Z,5.30
2023-04-27T17:20:14.465Z,5.63
2023-04-27T17:22:41.340Z,5.32
2023-04-27T17:25:09.837Z,5.32
2023-04-27T17:27:36.685Z,5.13
2023-04-27T17:30:05.298Z,5.05
2023-04-27T17:32:32.581Z,4.88
2023-04-27T17:34:59.769Z,6.00
2023-04-27T17:37:26.664Z,5.53
2023-04-27T17:39:55.168Z,5.40
2023-04-27T17:42:22.188Z,5.43
2023-04-27T17:44:49.257Z,5.40
2023-04-27T17:47:18.787Z,5.68
2023-04-27T17:49:46.537Z,5.53
2023-04-27T17:52:13.440Z,5.88
2023-04-27T17:54:44.056Z,5.30
2023-04-27T17:57:10.987Z,5.68
2023-04-27T17:59:38.180Z,5.63
2023-04-27T18:02:05.177Z,7.10
2023-04-27T18:04:32.634Z,5.93
2023-04-27T18:06:59.613Z,6.32
2023-04-27T18:09:28.777Z,5.90
2023-04-27T18:11:56.939Z,6.40
2023-04-27T18:14:25.417Z,7.05
2023-04-27T18:16:54.979Z,7.50
2023-04-27T18:19:24.455Z,7.20
2023-04-27T18:21:52.649Z,7.82
2023-04-27T18:24:21.585Z,7.50
2023-04-27T18:26:48.466Z,9.13
2023-04-27T18:29:15.903Z,8.98
2023-04-27T18:31:43.403Z,9.32
2023-04-27T18:34:10.775Z,9.27
2023-04-27T18:36:37.621Z,10.85
2023-04-27T18:39:05.337Z,11.15
2023-04-27T18:41:32.252Z,12.10
2023-04-27T18:44:06.750Z,12.80
2023-04-27T18:46:33.884Z,14.35
2023-04-27T18:49:06.108Z,15.77
2023-04-27T18:51:36.635Z,15.00
2023-04-27T18:56:31.574Z,17.20
2023-04-27T18:59:00.835Z,20.17
2023-04-27T19:01:30.206Z,20.88
2023-04-27T19:03:58.024Z,19.42
2023-04-27T19:06:25.040Z,21.45
2023-04-27T19:08:52.249Z,22.75
2023-04-27T19:11:22.429Z,23.25
2023-04-27T19:13:51.103Z,22.95
2023-04-27T19:16:19.430Z,22.00
2023-04-27T19:18:48.386Z,23.73
2023-04-27T19:21:16.529Z,21.45
2023-04-27T19:23:45.533Z,23.17
2023-04-27T19:26:13.918Z,23.70
2023-04-27T19:28:41.604Z,22.60
2023-04-27T19:31:09.997Z,23.65
2023-04-27T19:33:37.293Z,23.63
2023-04-27T19:36:04.452Z,24.77
2023-04-27T19:38:32.204Z,27.13
2023-04-27T19:40:59.243Z,25.52
2023-04-27T19:43:26.390Z,25.67
2023-04-27T19:45:53.301Z,26.63
2023-04-27T19:48:20.493Z,25.15
2023-04-27T19:50:47.890Z,25.83
2023-04-27T19:53:16.098Z,26.60
2023-04-27T19:55:42.998Z,26.40
2023-04-27T19:58:10.189Z,27.80
2023-04-27T20:00:37.118Z,29.40
2023-04-27T20:03:06.394Z,29.67
2023-04-27T20:05:35.199Z,30.73
2023-04-27T20:08:02.557Z,31.60
2023-04-27T20:10:29.980Z,34.22
2023-04-27T20:12:57.586Z,35.58
2023-04-27T20:15:24.901Z,34.00
2023-04-27T20:17:53.025Z,35.38
2023-04-27T20:20:20.752Z,37.20
2023-04-27T20:22:48.528Z,37.05
2023-04-27T20:25:15.694Z,38.42
2023-04-27T20:27:42.850Z,38.17
2023-04-27T20:30:09.995Z,39.35
2023-04-27T20:32:39.514Z,37.42
2023-04-27T20:35:11.367Z,39.92
2023-04-27T20:37:39.872Z,38.20
2023-04-27T20:40:13.434Z,38.35
2023-04-27T20:42:42.583Z,39.50
2023-04-27T20:45:11.517Z,37.42
2023-04-27T20:47:38.798Z,37.75
2023-04-27T20:50:06.432Z,37.50
2023-04-27T20:52:34.765Z,40.20
2023-04-27T20:55:04.195Z,39.17
2023-04-27T20:57:31.538Z,40.58
2023-04-27T20:59:58.394Z,40.80
2023-04-27T21:02:25.506Z,41.03
2023-04-27T21:04:53.163Z,39.90
2023-04-27T21:07:20.333Z,40.55
2023-04-27T21:09:47.206Z,40.80
2023-04-27T21:12:17.783Z,41.45
2023-04-27T21:14:44.782Z,39.67
2023-04-27T21:17:15.161Z,41.28
2023-04-27T21:19:42.247Z,40.92
2023-04-27T21:22:09.444Z,38.65
2023-04-27T21:24:36.345Z,43.58
2023-04-27T21:27:03.892Z,41.65
2023-04-27T21:29:30.694Z,42.28
2023-04-27T21:31:57.730Z,43.10
2023-04-27T21:34:24.565Z,42.03
2023-04-27T21:36:51.716Z,40.17
2023-04-27T21:39:18.482Z,45.78
2023-04-27T21:41:45.666Z,41.65
2023-04-27T21:44:12.532Z,43.35
2023-04-27T21:46:39.601Z,42.17
2023-04-27T21:49:06.491Z,44.65
2023-04-27T21:51:34.814Z,45.40
2023-04-27T21:54:01.838Z,44.53
2023-04-27T21:56:28.923Z,45.50
2023-04-27T21:58:55.707Z,45.58
2023-04-27T22:01:27.301Z,44.10
2023-04-27T22:03:54.342Z,45.90
2023-04-27T22:06:21.868Z,45.75
2023-04-27T22:08:48.642Z,46.17
2023-04-27T22:11:15.810Z,47.67
2023-04-27T22:13:42.626Z,46.03
2023-04-27T22:16:11.049Z,45.90
2023-04-27T22:18:39.005Z,45.50
2023-04-27T22:21:06.060Z,46.40
2023-04-27T22:23:32.826Z,46.53
2023-04-27T22:25:59.933Z,48.30
2023-04-27T22:28:26.740Z,46.38
2023-04-27T22:30:54.735Z,46.10
2023-04-27T22:33:21.427Z,47.40
2023-04-27T22:35:48.496Z,45.55
2023-04-27T22:38:15.187Z,46.92
2023-04-27T22:40:42.209Z,45.47
2023-04-27T22:43:08.894Z,47.30
2023-04-27T22:45:38.080Z,47.47
2023-04-27T22:48:05.666Z,47.63
2023-04-27T22:50:34.031Z,47.78
2023-04-27T22:53:01.070Z,47.63
2023-04-27T22:55:28.410Z,46.40
2023-04-27T22:57:55.139Z,46.50
2023-04-27T23:00:22.351Z,46.45
2023-04-27T23:02:49.195Z,47.58
2023-04-27T23:05:16.718Z,49.10
2023-04-27T23:07:43.620Z,48.78
2023-04-27T23:10:11.028Z,47.45
2023-04-27T23:12:38.777Z,49.35
2023-04-27T23:15:06.230Z,49.63
2023-04-27T23:17:33.620Z,48.47
2023-04-27T23:20:01.535Z,44.97
2023-04-27T23:22:28.354Z,49.58
2023-04-27T23:24:55.431Z,50.58
2023-04-27T23:27:23.585Z,48.13
2023-04-27T23:29:50.752Z,49.90
2023-04-27T23:32:17.573Z,49.60
2023-04-27T23:34:44.603Z,49.20
2023-04-27T23:37:11.350Z,50.65
2023-04-27T23:39:38.414Z,49.25
2023-04-27T23:42:05.247Z,51.28
2023-04-27T23:44:32.581Z,49.10
2023-04-27T23:46:59.393Z,50.67
2023-04-27T23:49:26.427Z,52.35
2023-04-27T23:51:53.151Z,50.55
2023-04-27T23:54:20.230Z,49.70
2023-04-27T23:56:47.308Z,49.83
2023-04-27T23:59:15.111Z,51.78
